createdAt,value
2023-05-18T00:02:00.452Z,68.08
2023-05-18T00:04:50.785Z,68.43
2023-05-18T00:07:37.844Z,68.86
2023-05-18T00:10:26.399Z,68.47
2023-05-18T00:13:13.125Z,68.60
2023-05-18T00:16:04.603Z,68.39
2023-05-18T00:18:54.833Z,68.46
2023-05-18T00:21:49.119Z,68.67
2023-05-18T00:24:37.144Z,68.56
2023-05-18T00:27:26.365Z,68.57
2023-05-18T00:30:13.962Z,68.42
2023-05-18T00:33:03.055Z,68.09
2023-05-18T00:35:49.739Z,68.62
2023-05-18T00:38:36.656Z,68.31
2023-05-18T00:41:23.432Z,68.58
2023-05-18T00:44:11.721Z,68.50
2023-05-18T00:47:00.335Z,68.25
2023-05-18T00:49:47.063Z,68.29
2023-05-18T00:52:34.641Z,68.32
2023-05-18T00:55:22.511Z,68.38
2023-05-18T00:58:10.102Z,68.29
2023-05-18T01:00:59.177Z,68.42
2023-05-18T01:03:46.130Z,68.15
2023-05-18T01:06:36.631Z,68.19
2023-05-18T01:09:23.982Z,68.11
2023-05-18T01:12:22.505Z,68.28
2023-05-18T01:15:15.266Z,67.90
2023-05-18T01:18:05.478Z,68.67
2023-05-18T01:21:00.877Z,68.05
2023-05-18T01:23:59.969Z,68.59
2023-05-18T01:26:47.433Z,67.74
2023-05-18T01:29:33.984Z,68.45
2023-05-18T01:32:24.675Z,68.72
2023-05-18T01:35:12.419Z,68.60
2023-05-18T01:37:59.530Z,68.76
2023-05-18T01:40:55.303Z,68.57
2023-05-18T01:44:04.389Z,68.30
2023-05-18T01:47:12.971Z,68.54
2023-05-18T01:50:07.151Z,68.36
2023-05-18T01:53:03.615Z,67.94
2023-05-18T01:55:51.520Z,67.76
2023-05-18T01:58:38.630Z,67.81
2023-05-18T02:01:25.704Z,68.45
2023-05-18T02:04:12.664Z,68.63
2023-05-18T02:06:59.750Z,68.60
2023-05-18T02:09:58.853Z,68.28
2023-05-18T02:12:49.202Z,68.27
2023-05-18T02:15:35.459Z,68.16
2023-05-18T02:18:22.854Z,68.14
2023-05-18T02:21:10.249Z,67.83
2023-05-18T02:23:57.253Z,67.06
2023-05-18T02:26:46.198Z,68.28
2023-05-18T02:29:36.980Z,67.81
2023-05-18T02:32:23.664Z,66.90
2023-05-18T02:35:12.683Z,68.19
2023-05-18T02:38:00.666Z,68.03
2023-05-18T02:40:50.358Z,67.95
2023-05-18T02:43:39.453Z,67.69
2023-05-18T02:46:27.828Z,67.83
2023-05-18T02:49:14.346Z,67.84
2023-05-18T02:52:01.620Z,67.57
2023-05-18T02:54:48.556Z,67.64
2023-05-18T02:57:47.116Z,67.58
2023-05-18T03:00:37.577Z,67.58
2023-05-18T03:03:25.923Z,67.25
2023-05-18T03:06:14.168Z,67.09
2023-05-18T03:09:01.479Z,66.93
2023-05-18T03:11:54.169Z,67.29
2023-05-18T03:14:41.210Z,66.89
2023-05-18T03:17:27.971Z,66.79
2023-05-18T03:20:15.800Z,66.89
2023-05-18T03:23:02.622Z,66.87
2023-05-18T03:25:57.298Z,66.79
2023-05-18T03:28:47.399Z,66.61
2023-05-18T03:31:36.631Z,66.72
2023-05-18T03:34:23.913Z,66.62
2023-05-18T03:37:11.269Z,66.64
2023-05-18T03:40:11.338Z,66.44
2023-05-18T03:42:59.038Z,66.60
2023-05-18T03:45:45.856Z,65.40
2023-05-18T03:48:32.807Z,66.88
2023-05-18T03:51:19.990Z,67.03
2023-05-18T03:54:06.887Z,66.40
2023-05-18T03:56:53.504Z,66.64
2023-05-18T03:59:40.148Z,66.52
2023-05-18T04:02:30.060Z,66.78
2023-05-18T04:05:17.158Z,66.78
2023-05-18T04:08:03.338Z,67.35
2023-05-18T04:10:51.362Z,65.86
2023-05-18T04:13:39.047Z,66.03
2023-05-18T04:16:30.383Z,66.40
2023-05-18T04:19:19.436Z,66.11
2023-05-18T04:22:08.376Z,66.07
2023-05-18T04:24:55.324Z,65.95
2023-05-18T04:27:51.198Z,65.82
2023-05-18T04:30:39.069Z,65.60
2023-05-18T04:33:26.273Z,65.94
2023-05-18T04:36:12.749Z,66.15
2023-05-18T04:39:00.115Z,65.96
2023-05-18T04:41:47.826Z,66.23
2023-05-18T04:44:34.856Z,66.38
2023-05-18T04:47:24.753Z,65.94
2023-05-18T04:50:11.341Z,66.25
2023-05-18T04:53:00.064Z,66.54
2023-05-18T04:55:47.278Z,66.01
2023-05-18T04:58:35.812Z,66.45
2023-05-18T05:01:22.316Z,66.78
2023-05-18T05:04:09.123Z,66.18
2023-05-18T05:06:56.879Z,66.25
2023-05-18T05:09:43.437Z,66.04
2023-05-18T05:12:30.579Z,66.77
2023-05-18T05:15:21.002Z,66.27
2023-05-18T05:18:09.668Z,66.52
2023-05-18T05:20:56.375Z,66.48
2023-05-18T05:23:42.781Z,66.14
2023-05-18T05:26:29.096Z,66.31
2023-05-18T05:29:16.348Z,66.03
2023-05-18T05:32:04.021Z,65.58
2023-05-18T05:34:51.939Z,65.56
2023-05-18T05:37:39.637Z,65.42
2023-05-18T05:40:27.371Z,65.26
2023-05-18T05:43:14.969Z,65.10
2023-05-18T05:46:03.498Z,64.57
2023-05-18T05:48:50.019Z,64.51
2023-05-18T05:51:37.074Z,63.96
2023-05-18T05:54:26.573Z,63.77
2023-05-18T05:57:14.720Z,63.84
2023-05-18T06:00:01.728Z,62.89
2023-05-18T06:02:53.067Z,62.16
2023-05-18T06:05:46.265Z,62.16
2023-05-18T06:08:40.731Z,62.09
2023-05-18T06:11:29.371Z,62.56
2023-05-18T06:14:16.333Z,61.82
2023-05-18T06:17:05.436Z,60.91
2023-05-18T06:19:54.990Z,60.81
2023-05-18T06:22:41.571Z,60.20
2023-05-18T06:25:39.194Z,59.68
2023-05-18T06:28:42.596Z,59.45
2023-05-18T06:32:13.356Z,59.73
2023-05-18T06:35:04.378Z,59.74
2023-05-18T06:37:52.310Z,59.52
2023-05-18T06:40:40.938Z,58.84
2023-05-18T06:43:28.589Z,58.44
2023-05-18T06:46:37.017Z,58.53
2023-05-18T06:49:31.339Z,57.98
2023-05-18T06:52:18.068Z,58.25
2023-05-18T06:55:05.802Z,57.71
2023-05-18T06:57:53.113Z,57.58
2023-05-18T07:00:41.652Z,57.87
2023-05-18T07:03:30.027Z,57.83
2023-05-18T07:06:16.639Z,57.51
2023-05-18T07:09:04.514Z,57.68
2023-05-18T07:11:51.380Z,57.19
2023-05-18T07:14:40.708Z,57.01
2023-05-18T07:17:27.771Z,57.14
2023-05-18T07:20:19.524Z,56.74
2023-05-18T07:23:09.059Z,57.15
2023-05-18T07:26:00.148Z,56.75
2023-05-18T07:28:48.908Z,57.24
2023-05-18T07:31:39.264Z,56.98
2023-05-18T07:34:52.275Z,56.31
2023-05-18T07:37:39.363Z,56.01
2023-05-18T07:40:28.908Z,56.07
2023-05-18T07:43:15.397Z,56.06
2023-05-18T07:46:05.751Z,55.58
2023-05-18T07:48:52.066Z,55.21
2023-05-18T07:51:38.788Z,54.99
2023-05-18T07:54:25.349Z,54.92
2023-05-18T07:57:13.141Z,55.16
2023-05-18T07:59:59.293Z,54.87
2023-05-18T08:02:47.152Z,54.78
2023-05-18T08:05:34.071Z,55.10
2023-05-18T08:08:21.949Z,54.99
2023-05-18T08:11:08.203Z,54.90
2023-05-18T08:13:55.253Z,55.36
2023-05-18T08:16:41.823Z,55.81
2023-05-18T08:19:33.039Z,55.26
2023-05-18T08:22:20.113Z,54.95
2023-05-18T08:25:07.298Z,54.79
2023-05-18T08:27:54.091Z,54.73
2023-05-18T08:30:41.391Z,55.25
2023-05-18T08:33:27.541Z,55.11
2023-05-18T08:36:14.218Z,54.92
2023-05-18T08:39:02.264Z,54.82
2023-05-18T08:41:55.284Z,55.22
2023-05-18T08:44:56.571Z,55.17
2023-05-18T08:47:49.920Z,55.38
2023-05-18T08:50:36.544Z,55.39
2023-05-18T08:53:28.107Z,55.61
2023-05-18T08:56:15.119Z,55.93
2023-05-18T08:59:05.342Z,55.70
2023-05-18T09:01:52.556Z,55.84
2023-05-18T09:04:41.355Z,56.18
2023-05-18T09:07:28.377Z,56.13
2023-05-18T09:10:16.010Z,55.79
2023-05-18T09:13:04.465Z,56.39
2023-05-18T09:15:51.749Z,56.57
2023-05-18T09:18:38.579Z,56.65
2023-05-18T09:21:27.923Z,56.43
2023-05-18T09:24:15.857Z,56.40
2023-05-18T09:27:02.766Z,56.13
2023-05-18T09:29:57.673Z,56.33
2023-05-18T09:32:47.822Z,56.53
2023-05-18T09:35:34.577Z,56.32
2023-05-18T09:38:23.366Z,56.33
2023-05-18T09:41:19.020Z,56.12
2023-05-18T09:44:09.635Z,56.20
2023-05-18T09:46:59.472Z,56.05
2023-05-18T09:49:46.669Z,55.79
2023-05-18T09:52:41.356Z,55.49
2023-05-18T09:55:31.408Z,55.80
2023-05-18T09:58:17.979Z,55.32
2023-05-18T10:01:06.970Z,56.08
2023-05-18T10:03:53.561Z,55.81
2023-05-18T10:06:51.498Z,55.98
2023-05-18T10:09:38.134Z,55.60
2023-05-18T10:12:24.671Z,55.53
2023-05-18T10:15:15.250Z,55.62
2023-05-18T10:18:06.494Z,55.25
2023-05-18T10:20:59.903Z,55.60
2023-05-18T10:23:48.595Z,55.27
2023-05-18T10:26:40.469Z,55.25
2023-05-18T10:29:28.300Z,54.96
2023-05-18T10:32:15.514Z,55.22
2023-05-18T10:35:02.831Z,55.45
2023-05-18T10:37:55.250Z,55.31
2023-05-18T10:40:43.859Z,54.96
2023-05-18T10:43:33.349Z,54.71
2023-05-18T10:46:24.119Z,55.07
2023-05-18T10:49:13.551Z,54.50
2023-05-18T10:52:00.278Z,54.79
2023-05-18T10:54:47.844Z,54.98
2023-05-18T10:57:39.852Z,54.43
2023-05-18T11:00:26.495Z,54.16
2023-05-18T11:03:14.646Z,54.63
2023-05-18T11:06:10.554Z,54.61
2023-05-18T11:08:58.703Z,54.34
2023-05-18T11:11:56.759Z,54.31
2023-05-18T11:14:55.343Z,54.04
2023-05-18T11:17:41.323Z,54.42
2023-05-18T11:20:28.379Z,54.19
2023-05-18T11:23:16.349Z,54.09
2023-05-18T11:26:07.444Z,54.06
2023-05-18T11:28:54.491Z,54.05
2023-05-18T11:31:44.919Z,54.31
2023-05-18T11:34:39.475Z,54.39
2023-05-18T11:37:49.816Z,54.52
2023-05-18T11:40:49.077Z,54.25
2023-05-18T11:43:38.462Z,54.52
2023-05-18T11:46:25.817Z,54.56
2023-05-18T11:49:16.472Z,54.69
2023-05-18T11:52:22.723Z,54.50
2023-05-18T11:55:14.680Z,54.53
2023-05-18T11:58:01.289Z,54.28
2023-05-18T12:00:49.584Z,54.49
2023-05-18T12:03:36.528Z,54.33
2023-05-18T12:06:23.189Z,53.88
2023-05-18T12:09:09.713Z,53.43
2023-05-18T12:11:56.573Z,53.47
2023-05-18T12:14:55.916Z,54.02
2023-05-18T12:17:45.549Z,53.82
2023-05-18T12:20:32.360Z,54.00
2023-05-18T12:23:19.087Z,53.79
2023-05-18T12:26:05.811Z,54.17
2023-05-18T12:28:56.520Z,54.08
2023-05-18T12:31:43.440Z,54.18
2023-05-18T12:34:30.177Z,53.49
2023-05-18T12:37:16.356Z,53.00
2023-05-18T12:40:03.678Z,52.95
2023-05-18T12:42:53.949Z,53.24
2023-05-18T12:45:41.183Z,53.52
2023-05-18T12:48:27.860Z,53.75
2023-05-18T12:51:19.272Z,53.56
2023-05-18T12:54:07.314Z,53.43
2023-05-18T12:57:02.103Z,53.40
2023-05-18T12:59:53.026Z,53.24
2023-05-18T13:02:40.102Z,52.98
2023-05-18T13:05:26.560Z,52.92
2023-05-18T13:08:22.277Z,52.78
2023-05-18T13:11:14.767Z,52.58
2023-05-18T13:14:13.110Z,52.92
2023-05-18T13:16:59.414Z,52.70
2023-05-18T13:19:46.613Z,52.05
2023-05-18T13:22:33.074Z,52.30
2023-05-18T13:25:19.733Z,52.25
2023-05-18T13:28:06.730Z,52.09
2023-05-18T13:30:56.713Z,52.13
2023-05-18T13:33:54.536Z,52.44
2023-05-18T13:36:44.150Z,52.25
2023-05-18T13:39:30.283Z,52.55
2023-05-18T13:42:21.262Z,52.75
2023-05-18T13:45:08.701Z,52.34
2023-05-18T13:47:55.244Z,52.40
2023-05-18T13:50:41.591Z,52.63
2023-05-18T13:53:28.664Z,52.64
2023-05-18T13:56:15.162Z,52.44
2023-05-18T13:59:02.166Z,52.57
2023-05-18T14:01:49.950Z,52.73
2023-05-18T14:04:36.741Z,52.44
2023-05-18T14:07:24.439Z,52.51
2023-05-18T14:10:12.848Z,52.79
2023-05-18T14:12:59.314Z,52.76
2023-05-18T14:15:53.002Z,52.29
2023-05-18T14:18:39.380Z,52.29
2023-05-18T14:21:29.453Z,52.06
2023-05-18T14:24:19.912Z,52.47
2023-05-18T14:27:06.270Z,52.67
2023-05-18T14:29:52.861Z,52.31
2023-05-18T14:32:39.281Z,52.26
2023-05-18T14:35:26.375Z,52.50
2023-05-18T14:38:18.740Z,52.47
2023-05-18T14:41:08.473Z,52.40
2023-05-18T14:43:55.221Z,52.25
2023-05-18T14:46:42.111Z,52.32
2023-05-18T14:49:28.944Z,52.49
2023-05-18T14:52:15.099Z,52.59
2023-05-18T14:55:01.553Z,52.25
2023-05-18T14:57:48.212Z,51.97
2023-05-18T15:00:35.159Z,51.86
2023-05-18T15:03:21.679Z,51.62
2023-05-18T15:06:08.494Z,51.68
2023-05-18T15:08:56.374Z,52.05
2023-05-18T15:11:51.290Z,52.27
2023-05-18T15:14:38.337Z,52.32
2023-05-18T15:17:25.144Z,52.20
2023-05-18T15:20:11.626Z,52.37
2023-05-18T15:23:00.710Z,52.14
2023-05-18T15:25:47.227Z,52.29
2023-05-18T15:28:34.129Z,52.75
2023-05-18T15:31:20.844Z,52.62
2023-05-18T15:34:07.962Z,52.58
2023-05-18T15:36:55.169Z,52.56
2023-05-18T15:39:42.288Z,52.44
2023-05-18T15:42:28.616Z,52.42
2023-05-18T15:45:19.603Z,52.34
2023-05-18T15:48:09.144Z,52.54
2023-05-18T15:50:56.606Z,52.44
2023-05-18T15:53:43.398Z,52.28
2023-05-18T15:56:30.862Z,52.46
2023-05-18T15:59:17.610Z,52.46
2023-05-18T16:02:04.195Z,52.72
2023-05-18T16:04:51.149Z,52.42
2023-05-18T16:07:41.144Z,52.47
2023-05-18T16:10:27.333Z,52.37
2023-05-18T16:13:14.932Z,52.43
2023-05-18T16:16:03.645Z,52.71
2023-05-18T16:18:50.789Z,52.68
2023-05-18T16:21:47.825Z,52.64
2023-05-18T16:37:12.452Z,52.87
2023-05-18T16:40:00.842Z,53.16
2023-05-18T16:42:54.580Z,52.97
2023-05-18T16:49:38.788Z,53.63
2023-05-18T16:56:24.043Z,53.64
2023-05-18T16:59:11.842Z,53.52
2023-05-18T17:02:06.338Z,53.75
2023-05-18T17:04:56.357Z,53.98
2023-05-18T17:07:43.647Z,53.82
2023-05-18T17:10:35.791Z,54.21
2023-05-18T17:13:25.709Z,54.36
2023-05-18T17:16:17.533Z,54.58
2023-05-18T17:19:04.620Z,54.71
2023-05-18T17:21:51.834Z,54.72
2023-05-18T17:24:38.986Z,54.89
2023-05-18T17:27:25.854Z,55.00
2023-05-18T17:30:12.790Z,55.07
2023-05-18T17:32:59.825Z,55.26
2023-05-18T17:35:46.992Z,55.30
2023-05-18T17:38:33.414Z,55.38
2023-05-18T17:41:22.783Z,55.51
2023-05-18T17:44:14.038Z,55.51
2023-05-18T17:47:04.356Z,55.53
2023-05-18T17:49:51.188Z,55.14
2023-05-18T17:52:45.410Z,55.75
2023-05-18T17:55:32.523Z,55.49
2023-05-18T17:58:19.493Z,55.77
2023-05-18T18:01:12.830Z,55.96
2023-05-18T18:04:00.144Z,56.01
2023-05-18T18:06:47.230Z,56.09
2023-05-18T18:09:38.073Z,56.33
2023-05-18T18:12:25.003Z,56.68
2023-05-18T18:15:12.643Z,56.68
2023-05-18T18:17:59.431Z,56.67
2023-05-18T18:20:47.032Z,57.06
2023-05-18T18:23:42.677Z,57.17
2023-05-18T18:26:40.794Z,57.24
2023-05-18T18:29:31.885Z,57.37
2023-05-18T18:32:23.262Z,57.47
2023-05-18T18:35:15.693Z,57.72
2023-05-18T18:38:04.397Z,58.08
2023-05-18T18:40:53.059Z,58.10
2023-05-18T18:43:40.565Z,58.49
2023-05-18T18:46:38.537Z,58.58
2023-05-18T18:49:27.779Z,58.81
2023-05-18T18:52:14.730Z,58.78
2023-05-18T18:55:06.342Z,58.84
2023-05-18T18:57:56.005Z,59.22
2023-05-18T19:00:43.953Z,59.25
2023-05-18T19:03:34.550Z,59.40
2023-05-18T19:06:25.391Z,59.73
2023-05-18T19:09:12.301Z,60.03
2023-05-18T19:12:05.326Z,59.99
2023-05-18T19:14:54.741Z,60.26
2023-05-18T19:17:54.960Z,60.37
2023-05-18T19:20:44.831Z,60.48
2023-05-18T19:23:32.064Z,60.77
2023-05-18T19:26:21.703Z,60.80
2023-05-18T19:29:26.009Z,61.13
2023-05-18T19:32:12.687Z,60.92
2023-05-18T19:35:00.892Z,61.21
2023-05-18T19:37:51.988Z,61.54
2023-05-18T19:40:39.671Z,61.41
2023-05-18T19:43:29.116Z,61.62
2023-05-18T19:46:29.813Z,61.82
2023-05-18T19:49:26.368Z,61.85
2023-05-18T19:52:40.677Z,62.08
2023-05-18T19:55:48.766Z,62.44
2023-05-18T19:58:36.125Z,62.44
2023-05-18T20:01:28.474Z,62.74
2023-05-18T20:04:24.279Z,62.85
2023-05-18T20:07:15.944Z,63.43
2023-05-18T20:10:09.434Z,63.56
2023-05-18T20:13:03.825Z,64.34
2023-05-18T20:15:50.724Z,64.29
2023-05-18T20:18:40.842Z,65.17
2023-05-18T20:21:28.747Z,65.08
2023-05-18T20:24:15.202Z,65.73
2023-05-18T20:27:02.680Z,66.22
2023-05-18T20:29:51.958Z,66.63
2023-05-18T20:32:41.123Z,66.79
2023-05-18T20:35:27.453Z,67.03
2023-05-18T20:38:19.713Z,67.08
2023-05-18T20:41:08.085Z,67.46
2023-05-18T20:43:57.458Z,67.57
2023-05-18T20:46:46.153Z,67.85
2023-05-18T20:49:35.437Z,68.21
2023-05-18T20:52:21.615Z,68.08
2023-05-18T20:55:14.043Z,68.13
2023-05-18T20:58:02.638Z,68.30
2023-05-18T21:00:49.698Z,68.54
2023-05-18T21:03:36.337Z,68.97
2023-05-18T21:06:26.342Z,68.94
2023-05-18T21:09:19.504Z,68.80
2023-05-18T21:12:17.690Z,68.95
2023-05-18T21:15:22.599Z,69.01
2023-05-18T21:18:09.561Z,68.82
2023-05-18T21:20:58.600Z,69.09
2023-05-18T21:23:45.313Z,69.44
2023-05-18T21:26:34.304Z,69.48
2023-05-18T21:29:26.813Z,69.15
2023-05-18T21:32:13.177Z,69.34
2023-05-18T21:34:59.810Z,69.04
2023-05-18T21:37:46.621Z,69.51
2023-05-18T21:40:38.677Z,69.39
2023-05-18T21:43:27.782Z,69.65
2023-05-18T21:46:14.571Z,69.60
2023-05-18T21:49:02.493Z,69.73
2023-05-18T21:51:52.071Z,69.76
2023-05-18T21:54:38.693Z,69.73
2023-05-18T21:57:26.984Z,69.66
2023-05-18T22:00:14.239Z,69.69
2023-05-18T22:03:01.246Z,69.79
2023-05-18T22:05:47.839Z,69.72
2023-05-18T22:08:34.788Z,69.68
2023-05-18T22:11:24.661Z,69.60
2023-05-18T22:14:16.938Z,69.71
2023-05-18T22:17:05.263Z,69.73
2023-05-18T22:19:54.610Z,69.80
2023-05-18T22:22:45.271Z,69.81
2023-05-18T22:25:32.509Z,69.86
2023-05-18T22:28:21.773Z,69.75
2023-05-18T22:31:08.567Z,69.75
2023-05-18T22:33:57.740Z,69.83
2023-05-18T22:36:44.828Z,69.89
2023-05-18T22:39:31.506Z,69.72
2023-05-18T22:42:18.447Z,70.13
2023-05-18T22:45:04.873Z,70.13
2023-05-18T22:47:51.635Z,69.95
2023-05-18T22:50:37.856Z,70.21
2023-05-18T22:53:24.786Z,70.50
2023-05-18T22:56:11.685Z,70.52
2023-05-18T22:58:58.674Z,70.38
2023-05-18T23:01:45.228Z,70.29
2023-05-18T23:04:33.971Z,70.53
2023-05-18T23:07:22.137Z,70.87
2023-05-18T23:10:12.388Z,70.92
2023-05-18T23:12:59.485Z,70.84
2023-05-18T23:15:47.855Z,70.78
2023-05-18T23:18:37.311Z,71.00
2023-05-18T23:21:23.890Z,70.92
2023-05-18T23:24:13.412Z,71.25
2023-05-18T23:27:09.174Z,71.51
2023-05-18T23:29:55.535Z,71.47
2023-05-18T23:32:45.646Z,71.68
2023-05-18T23:35:32.536Z,71.10
2023-05-18T23:38:22.088Z,71.58
2023-05-18T23:41:09.026Z,71.97
2023-05-18T23:43:56.383Z,72.04
2023-05-18T23:46:43.376Z,71.80
2023-05-18T23:49:32.506Z,72.51
2023-05-18T23:52:21.428Z,72.39
2023-05-18T23:55:10.831Z,72.68
2023-05-18T23:57:57.992Z,72.60
